Terminal Aerodrome Forecast
Issued by NWS Buffalo, NY

Home | Current Version | Previous Version | Text Only | Print | Product List | Glossary On
Versions: 1 2 3 4 5 6 7 8 9 10 11 12 13 14 15 16 17 18 19 20 21 22 23 24 25 26 27 28 29 30 31 32
000
FTUS41 KBUF 231000 AAE
TAFBUF
TAF AMD
KBUF 231011Z 2310/2406 05004KT P6SM OVC008
      TEMPO 2310/2313 3SM BR OVC005
     FM231300 05005KT P6SM BKN012
     FM231500 05008KT P6SM BKN025
     FM231800 06010KT P6SM BKN040
     FM232000 05011KT P6SM BKN140
     FM232100 05011KT P6SM BKN200
     FM240000 06007KT P6SM SCT150
     FM240200 10005KT P6SM SCT250=

USA.gov is the U.S. government's official web portal to all federal, state and local government web resources and services.